sensor_id;sensor_type;location;lat;lon;timestamp;P1;durP1;ratioP1;P2;durP2;ratioP2
79363;SDS011;68832;53.112;17.980;2024-01-10T00:00:19;45.80;;;19.70;;
79363;SDS011;68832;53.112;17.980;2024-01-10T00:03:10;45.40;;;21.90;;
79363;SDS011;68832;53.112;17.980;2024-01-10T00:05:38;46.40;;;22.30;;
79363;SDS011;68832;53.112;17.980;2024-01-10T00:08:07;43.50;;;22.90;;
79363;SDS011;68832;53.112;17.980;2024-01-10T00:10:40;46.10;;;21.20;;
79363;SDS011;68832;53.112;17.980;2024-01-10T00:13:11;51.20;;;22.80;;
79363;SDS011;68832;53.112;17.980;2024-01-10T00:15:45;48.20;;;21.60;;
79363;SDS011;68832;53.112;17.980;2024-01-10T00:18:14;49.10;;;21.50;;
79363;SDS011;68832;53.112;17.980;2024-01-10T00:20:41;45.10;;;21.00;;
79363;SDS011;68832;53.112;17.980;2024-01-10T00:23:16;46.40;;;23.30;;
79363;SDS011;68832;53.112;17.980;2024-01-10T00:25:44;47.00;;;22.20;;
79363;SDS011;68832;53.112;17.980;2024-01-10T00:28:16;48.70;;;21.10;;
79363;SDS011;68832;53.112;17.980;2024-01-10T00:30:59;44.20;;;21.10;;
79363;SDS011;68832;53.112;17.980;2024-01-10T00:33:44;43.10;;;20.90;;
79363;SDS011;68832;53.112;17.980;2024-01-10T00:36:15;52.10;;;22.00;;
79363;SDS011;68832;53.112;17.980;2024-01-10T00:38:47;52.00;;;23.30;;
79363;SDS011;68832;53.112;17.980;2024-01-10T00:41:27;51.30;;;22.20;;
79363;SDS011;68832;53.112;17.980;2024-01-10T00:44:02;47.50;;;21.10;;
79363;SDS011;68832;53.112;17.980;2024-01-10T00:46:33;41.10;;;21.00;;
79363;SDS011;68832;53.112;17.980;2024-01-10T00:49:12;42.40;;;20.00;;
79363;SDS011;68832;53.112;17.980;2024-01-10T00:52:05;46.00;;;21.50;;
79363;SDS011;68832;53.112;17.980;2024-01-10T00:54:43;42.20;;;18.90;;
79363;SDS011;68832;53.112;17.980;2024-01-10T00:57:18;49.90;;;21.70;;
79363;SDS011;68832;53.112;17.980;2024-01-10T00:59:56;49.70;;;20.10;;
79363;SDS011;68832;53.112;17.980;2024-01-10T01:02:30;53.20;;;22.60;;
79363;SDS011;68832;53.112;17.980;2024-01-10T01:05:04;39.70;;;21.40;;
79363;SDS011;68832;53.112;17.980;2024-01-10T01:07:35;40.70;;;20.80;;
79363;SDS011;68832;53.112;17.980;2024-01-10T01:10:09;45.20;;;20.90;;
79363;SDS011;68832;53.112;17.980;2024-01-10T01:12:40;43.80;;;22.00;;
79363;SDS011;68832;53.112;17.980;2024-01-10T01:15:16;42.20;;;19.90;;
79363;SDS011;68832;53.112;17.980;2024-01-10T01:18:01;38.10;;;19.40;;
79363;SDS011;68832;53.112;17.980;2024-01-10T01:20:43;48.30;;;21.10;;
79363;SDS011;68832;53.112;17.980;2024-01-10T01:23:13;40.80;;;20.90;;
79363;SDS011;68832;53.112;17.980;2024-01-10T01:25:43;42.40;;;20.40;;
79363;SDS011;68832;53.112;17.980;2024-01-10T01:28:19;39.40;;;19.10;;
79363;SDS011;68832;53.112;17.980;2024-01-10T01:30:59;43.00;;;26.00;;
79363;SDS011;68832;53.112;17.980;2024-01-10T01:33:51;45.40;;;19.20;;
79363;SDS011;68832;53.112;17.980;2024-01-10T01:36:37;47.80;;;20.00;;
79363;SDS011;68832;53.112;17.980;2024-01-10T01:39:12;38.60;;;18.60;;
79363;SDS011;68832;53.112;17.980;2024-01-10T01:41:52;35.60;;;18.00;;
79363;SDS011;68832;53.112;17.980;2024-01-10T01:44:24;36.20;;;18.40;;
79363;SDS011;68832;53.112;17.980;2024-01-10T01:46:57;37.10;;;18.80;;
79363;SDS011;68832;53.112;17.980;2024-01-10T01:49:31;36.90;;;17.50;;
79363;SDS011;68832;53.112;17.980;2024-01-10T01:52:01;41.50;;;20.20;;
79363;SDS011;68832;53.112;17.980;2024-01-10T01:54:35;38.80;;;19.50;;
79363;SDS011;68832;53.112;17.980;2024-01-10T01:57:21;38.20;;;17.70;;
79363;SDS011;68832;53.112;17.980;2024-01-10T02:00:04;32.00;;;16.80;;
79363;SDS011;68832;53.112;17.980;2024-01-10T02:02:37;39.20;;;17.60;;
79363;SDS011;68832;53.112;17.980;2024-01-10T02:05:12;38.60;;;18.70;;
79363;SDS011;68832;53.112;17.980;2024-01-10T02:08:10;43.50;;;21.50;;
79363;SDS011;68832;53.112;17.980;2024-01-10T02:10:41;50.10;;;23.10;;
79363;SDS011;68832;53.112;17.980;2024-01-10T02:13:19;42.80;;;22.10;;
79363;SDS011;68832;53.112;17.980;2024-01-10T02:15:47;43.10;;;20.90;;
79363;SDS011;68832;53.112;17.980;2024-01-10T02:18:17;42.70;;;21.00;;
79363;SDS011;68832;53.112;17.980;2024-01-10T02:20:45;41.50;;;20.30;;
79363;SDS011;68832;53.112;17.980;2024-01-10T02:23:19;35.70;;;18.70;;
79363;SDS011;68832;53.112;17.980;2024-01-10T02:25:46;44.70;;;19.30;;
79363;SDS011;68832;53.112;17.980;2024-01-10T02:28:14;41.50;;;19.30;;
79363;SDS011;68832;53.112;17.980;2024-01-10T02:30:42;35.00;;;15.50;;
79363;SDS011;68832;53.112;17.980;2024-01-10T02:33:12;34.60;;;18.70;;
79363;SDS011;68832;53.112;17.980;2024-01-10T02:35:46;41.10;;;17.70;;
79363;SDS011;68832;53.112;17.980;2024-01-10T02:38:12;37.10;;;18.00;;
79363;SDS011;68832;53.112;17.980;2024-01-10T02:40:41;33.90;;;16.00;;
79363;SDS011;68832;53.112;17.980;2024-01-10T02:43:09;44.20;;;19.10;;
79363;SDS011;68832;53.112;17.980;2024-01-10T02:45:41;43.10;;;21.30;;
79363;SDS011;68832;53.112;17.980;2024-01-10T02:48:08;50.80;;;23.80;;
79363;SDS011;68832;53.112;17.980;2024-01-10T02:50:38;57.90;;;24.00;;
79363;SDS011;68832;53.112;17.980;2024-01-10T02:53:16;62.30;;;27.60;;
79363;SDS011;68832;53.112;17.980;2024-01-10T02:55:43;58.20;;;28.00;;
79363;SDS011;68832;53.112;17.980;2024-01-10T02:58:10;68.30;;;30.40;;
79363;SDS011;68832;53.112;17.980;2024-01-10T03:00:37;63.00;;;30.60;;
79363;SDS011;68832;53.112;17.980;2024-01-10T03:03:05;61.40;;;28.60;;
79363;SDS011;68832;53.112;17.980;2024-01-10T03:05:31;70.60;;;31.40;;
79363;SDS011;68832;53.112;17.980;2024-01-10T03:07:59;71.90;;;30.90;;
79363;SDS011;68832;53.112;17.980;2024-01-10T03:10:28;66.20;;;35.40;;
79363;SDS011;68832;53.112;17.980;2024-01-10T03:12:56;66.60;;;32.50;;
79363;SDS011;68832;53.112;17.980;2024-01-10T03:15:24;72.00;;;32.20;;
79363;SDS011;68832;53.112;17.980;2024-01-10T03:17:52;67.70;;;30.20;;
79363;SDS011;68832;53.112;17.980;2024-01-10T03:20:18;73.20;;;31.60;;
79363;SDS011;68832;53.112;17.980;2024-01-10T03:22:45;69.20;;;32.10;;
79363;SDS011;68832;53.112;17.980;2024-01-10T03:25:12;66.90;;;29.90;;
79363;SDS011;68832;53.112;17.980;2024-01-10T03:27:38;70.10;;;34.10;;
79363;SDS011;68832;53.112;17.980;2024-01-10T03:30:06;66.80;;;29.60;;
79363;SDS011;68832;53.112;17.980;2024-01-10T03:32:34;66.50;;;29.90;;
79363;SDS011;68832;53.112;17.980;2024-01-10T03:35:00;73.20;;;33.40;;
79363;SDS011;68832;53.112;17.980;2024-01-10T03:37:27;69.40;;;30.50;;
79363;SDS011;68832;53.112;17.980;2024-01-10T03:39:53;68.00;;;30.10;;
79363;SDS011;68832;53.112;17.980;2024-01-10T03:42:20;66.40;;;30.30;;
79363;SDS011;68832;53.112;17.980;2024-01-10T03:44:47;85.80;;;39.30;;
79363;SDS011;68832;53.112;17.980;2024-01-10T03:47:15;74.10;;;33.00;;
79363;SDS011;68832;53.112;17.980;2024-01-10T03:49:42;68.90;;;32.50;;
79363;SDS011;68832;53.112;17.980;2024-01-10T03:52:09;61.70;;;29.80;;
79363;SDS011;68832;53.112;17.980;2024-01-10T03:54:35;79.80;;;31.20;;
79363;SDS011;68832;53.112;17.980;2024-01-10T03:57:02;66.20;;;30.10;;
79363;SDS011;68832;53.112;17.980;2024-01-10T03:59:30;76.10;;;32.50;;
79363;SDS011;68832;53.112;17.980;2024-01-10T04:02:00;78.80;;;33.30;;
79363;SDS011;68832;53.112;17.980;2024-01-10T04:04:28;71.70;;;35.50;;
79363;SDS011;68832;53.112;17.980;2024-01-10T04:06:54;65.60;;;29.00;;
79363;SDS011;68832;53.112;17.980;2024-01-10T04:09:21;63.10;;;30.10;;
79363;SDS011;68832;53.112;17.980;2024-01-10T04:11:49;72.50;;;31.30;;
79363;SDS011;68832;53.112;17.980;2024-01-10T04:14:19;65.20;;;29.60;;
79363;SDS011;68832;53.112;17.980;2024-01-10T04:16:46;85.00;;;32.90;;
79363;SDS011;68832;53.112;17.980;2024-01-10T04:19:18;82.10;;;32.60;;
79363;SDS011;68832;53.112;17.980;2024-01-10T04:21:46;71.40;;;30.50;;
79363;SDS011;68832;53.112;17.980;2024-01-10T04:24:16;61.60;;;29.60;;
79363;SDS011;68832;53.112;17.980;2024-01-10T04:26:45;65.30;;;28.70;;
79363;SDS011;68832;53.112;17.980;2024-01-10T04:29:14;69.70;;;32.10;;
79363;SDS011;68832;53.112;17.980;2024-01-10T04:31:46;62.30;;;26.40;;
79363;SDS011;68832;53.112;17.980;2024-01-10T04:34:15;83.60;;;32.60;;
79363;SDS011;68832;53.112;17.980;2024-01-10T04:36:44;82.60;;;35.00;;
79363;SDS011;68832;53.112;17.980;2024-01-10T04:39:12;60.50;;;30.00;;
79363;SDS011;68832;53.112;17.980;2024-01-10T04:41:43;65.10;;;30.00;;
79363;SDS011;68832;53.112;17.980;2024-01-10T04:44:13;63.10;;;27.70;;
79363;SDS011;68832;53.112;17.980;2024-01-10T04:46:43;62.10;;;27.20;;
79363;SDS011;68832;53.112;17.980;2024-01-10T04:49:10;58.90;;;26.50;;
79363;SDS011;68832;53.112;17.980;2024-01-10T04:52:15;73.30;;;36.50;;
79363;SDS011;68832;53.112;17.980;2024-01-10T04:55:10;67.30;;;30.20;;
79363;SDS011;68832;53.112;17.980;2024-01-10T04:57:40;57.50;;;27.50;;
79363;SDS011;68832;53.112;17.980;2024-01-10T05:00:21;65.50;;;29.90;;
79363;SDS011;68832;53.112;17.980;2024-01-10T05:02:59;65.70;;;26.00;;
79363;SDS011;68832;53.112;17.980;2024-01-10T05:06:04;59.60;;;26.80;;
79363;SDS011;68832;53.112;17.980;2024-01-10T05:08:31;86.00;;;35.60;;
79363;SDS011;68832;53.112;17.980;2024-01-10T05:11:03;72.20;;;32.30;;
79363;SDS011;68832;53.112;17.980;2024-01-10T05:13:33;71.90;;;30.70;;
79363;SDS011;68832;53.112;17.980;2024-01-10T05:16:14;64.50;;;30.90;;
79363;SDS011;68832;53.112;17.980;2024-01-10T05:18:44;75.00;;;31.30;;
79363;SDS011;68832;53.112;17.980;2024-01-10T05:21:14;71.70;;;30.30;;
79363;SDS011;68832;53.112;17.980;2024-01-10T05:23:42;89.40;;;41.90;;
79363;SDS011;68832;53.112;17.980;2024-01-10T05:26:13;112.70;;;43.70;;
79363;SDS011;68832;53.112;17.980;2024-01-10T05:28:45;83.70;;;34.10;;
79363;SDS011;68832;53.112;17.980;2024-01-10T05:31:16;72.00;;;33.40;;
79363;SDS011;68832;53.112;17.980;2024-01-10T05:33:44;64.50;;;27.40;;
79363;SDS011;68832;53.112;17.980;2024-01-10T05:36:12;75.60;;;35.20;;
79363;SDS011;68832;53.112;17.980;2024-01-10T05:41:10;80.80;;;33.10;;
79363;SDS011;68832;53.112;17.980;2024-01-10T05:43:37;76.50;;;30.40;;
79363;SDS011;68832;53.112;17.980;2024-01-10T05:46:05;80.30;;;32.80;;
79363;SDS011;68832;53.112;17.980;2024-01-10T05:48:34;79.80;;;32.30;;
79363;SDS011;68832;53.112;17.980;2024-01-10T05:51:02;70.10;;;28.60;;
79363;SDS011;68832;53.112;17.980;2024-01-10T05:53:30;71.90;;;30.10;;
79363;SDS011;68832;53.112;17.980;2024-01-10T05:55:58;73.10;;;28.60;;
79363;SDS011;68832;53.112;17.980;2024-01-10T05:58:25;77.60;;;32.70;;
79363;SDS011;68832;53.112;17.980;2024-01-10T06:00:54;79.80;;;32.70;;
79363;SDS011;68832;53.112;17.980;2024-01-10T06:03:24;77.30;;;32.30;;
79363;SDS011;68832;53.112;17.980;2024-01-10T06:05:53;65.60;;;30.50;;
79363;SDS011;68832;53.112;17.980;2024-01-10T06:08:23;63.80;;;28.50;;
79363;SDS011;68832;53.112;17.980;2024-01-10T06:10:53;97.00;;;40.80;;
79363;SDS011;68832;53.112;17.980;2024-01-10T06:13:21;62.00;;;27.20;;
79363;SDS011;68832;53.112;17.980;2024-01-10T06:15:49;61.60;;;25.00;;
79363;SDS011;68832;53.112;17.980;2024-01-10T06:18:17;68.70;;;28.10;;
79363;SDS011;68832;53.112;17.980;2024-01-10T06:20:44;62.80;;;28.80;;
79363;SDS011;68832;53.112;17.980;2024-01-10T06:23:11;57.20;;;22.90;;
79363;SDS011;68832;53.112;17.980;2024-01-10T06:25:44;60.80;;;26.80;;
79363;SDS011;68832;53.112;17.980;2024-01-10T06:28:12;48.40;;;22.30;;
79363;SDS011;68832;53.112;17.980;2024-01-10T06:30:39;51.20;;;20.70;;
79363;SDS011;68832;53.112;17.980;2024-01-10T06:33:06;50.00;;;23.60;;
79363;SDS011;68832;53.112;17.980;2024-01-10T06:35:35;56.20;;;22.80;;
79363;SDS011;68832;53.112;17.980;2024-01-10T06:38:02;59.60;;;23.10;;
79363;SDS011;68832;53.112;17.980;2024-01-10T06:40:30;51.20;;;22.90;;
79363;SDS011;68832;53.112;17.980;2024-01-10T06:42:57;49.10;;;23.60;;
79363;SDS011;68832;53.112;17.980;2024-01-10T06:45:23;50.30;;;24.50;;
79363;SDS011;68832;53.112;17.980;2024-01-10T06:47:52;70.40;;;29.50;;
79363;SDS011;68832;53.112;17.980;2024-01-10T06:50:20;63.00;;;24.80;;
79363;SDS011;68832;53.112;17.980;2024-01-10T06:52:48;52.00;;;21.90;;
79363;SDS011;68832;53.112;17.980;2024-01-10T06:55:15;51.20;;;21.80;;
79363;SDS011;68832;53.112;17.980;2024-01-10T06:57:44;48.60;;;22.90;;
79363;SDS011;68832;53.112;17.980;2024-01-10T07:00:11;44.00;;;21.30;;
79363;SDS011;68832;53.112;17.980;2024-01-10T07:02:38;49.00;;;19.00;;
79363;SDS011;68832;53.112;17.980;2024-01-10T07:05:09;39.90;;;17.40;;
79363;SDS011;68832;53.112;17.980;2024-01-10T07:07:37;41.20;;;19.10;;
79363;SDS011;68832;53.112;17.980;2024-01-10T07:10:05;53.70;;;23.10;;
79363;SDS011;68832;53.112;17.980;2024-01-10T07:12:33;54.70;;;21.70;;
79363;SDS011;68832;53.112;17.980;2024-01-10T07:15:01;52.50;;;22.90;;
79363;SDS011;68832;53.112;17.980;2024-01-10T07:17:34;58.40;;;26.50;;
79363;SDS011;68832;53.112;17.980;2024-01-10T07:20:15;49.30;;;24.90;;
79363;SDS011;68832;53.112;17.980;2024-01-10T07:22:46;49.90;;;20.60;;
79363;SDS011;68832;53.112;17.980;2024-01-10T07:25:22;61.10;;;24.70;;
79363;SDS011;68832;53.112;17.980;2024-01-10T07:28:01;59.10;;;25.00;;
79363;SDS011;68832;53.112;17.980;2024-01-10T07:30:28;54.70;;;24.90;;
79363;SDS011;68832;53.112;17.980;2024-01-10T07:32:59;46.00;;;21.30;;
79363;SDS011;68832;53.112;17.980;2024-01-10T07:35:26;59.80;;;25.50;;
79363;SDS011;68832;53.112;17.980;2024-01-10T07:37:54;49.30;;;23.70;;
79363;SDS011;68832;53.112;17.980;2024-01-10T07:40:21;52.40;;;23.70;;
79363;SDS011;68832;53.112;17.980;2024-01-10T07:42:49;67.00;;;26.70;;
79363;SDS011;68832;53.112;17.980;2024-01-10T07:45:16;69.40;;;31.10;;
79363;SDS011;68832;53.112;17.980;2024-01-10T07:47:42;61.50;;;25.60;;
79363;SDS011;68832;53.112;17.980;2024-01-10T07:50:12;67.40;;;29.20;;
79363;SDS011;68832;53.112;17.980;2024-01-10T07:52:41;66.60;;;29.90;;
79363;SDS011;68832;53.112;17.980;2024-01-10T07:55:11;60.70;;;26.30;;
79363;SDS011;68832;53.112;17.980;2024-01-10T07:57:43;62.60;;;28.60;;
79363;SDS011;68832;53.112;17.980;2024-01-10T08:00:19;90.00;;;39.70;;
79363;SDS011;68832;53.112;17.980;2024-01-10T08:02:48;77.20;;;32.50;;
79363;SDS011;68832;53.112;17.980;2024-01-10T08:05:19;70.20;;;31.20;;
79363;SDS011;68832;53.112;17.980;2024-01-10T08:07:47;62.40;;;28.00;;
79363;SDS011;68832;53.112;17.980;2024-01-10T08:10:14;63.20;;;29.90;;
79363;SDS011;68832;53.112;17.980;2024-01-10T08:12:42;67.40;;;29.20;;
79363;SDS011;68832;53.112;17.980;2024-01-10T08:15:08;55.70;;;24.70;;
79363;SDS011;68832;53.112;17.980;2024-01-10T08:17:36;59.30;;;27.60;;
79363;SDS011;68832;53.112;17.980;2024-01-10T08:20:06;51.50;;;23.20;;
79363;SDS011;68832;53.112;17.980;2024-01-10T08:22:34;52.50;;;24.70;;
79363;SDS011;68832;53.112;17.980;2024-01-10T08:25:03;57.50;;;24.70;;
79363;SDS011;68832;53.112;17.980;2024-01-10T08:27:31;73.50;;;35.90;;
79363;SDS011;68832;53.112;17.980;2024-01-10T08:29:57;46.20;;;22.00;;
79363;SDS011;68832;53.112;17.980;2024-01-10T08:32:24;49.20;;;20.30;;
79363;SDS011;68832;53.112;17.980;2024-01-10T08:34:51;52.10;;;21.70;;
79363;SDS011;68832;53.112;17.980;2024-01-10T08:37:21;50.00;;;25.60;;
79363;SDS011;68832;53.112;17.980;2024-01-10T08:39:55;42.20;;;19.60;;
79363;SDS011;68832;53.112;17.980;2024-01-10T08:42:22;46.70;;;20.80;;
79363;SDS011;68832;53.112;17.980;2024-01-10T08:44:49;41.40;;;20.70;;
79363;SDS011;68832;53.112;17.980;2024-01-10T08:47:16;41.50;;;19.20;;
79363;SDS011;68832;53.112;17.980;2024-01-10T08:49:42;49.30;;;19.70;;
79363;SDS011;68832;53.112;17.980;2024-01-10T08:52:11;39.30;;;20.50;;
79363;SDS011;68832;53.112;17.980;2024-01-10T08:54:38;45.40;;;22.40;;
79363;SDS011;68832;53.112;17.980;2024-01-10T08:57:04;42.50;;;21.80;;
79363;SDS011;68832;53.112;17.980;2024-01-10T08:59:31;40.10;;;20.20;;
79363;SDS011;68832;53.112;17.980;2024-01-10T09:01:58;35.60;;;19.50;;
79363;SDS011;68832;53.112;17.980;2024-01-10T09:04:27;37.40;;;18.80;;
79363;SDS011;68832;53.112;17.980;2024-01-10T09:06:54;39.20;;;18.10;;
79363;SDS011;68832;53.112;17.980;2024-01-10T09:09:20;31.50;;;17.20;;
79363;SDS011;68832;53.112;17.980;2024-01-10T09:11:48;30.20;;;15.70;;
79363;SDS011;68832;53.112;17.980;2024-01-10T09:14:14;34.00;;;18.30;;
79363;SDS011;68832;53.112;17.980;2024-01-10T09:16:42;40.50;;;19.70;;
79363;SDS011;68832;53.112;17.980;2024-01-10T09:19:08;42.00;;;18.50;;
79363;SDS011;68832;53.112;17.980;2024-01-10T09:21:36;73.80;;;29.20;;
79363;SDS011;68832;53.112;17.980;2024-01-10T09:24:03;45.40;;;21.10;;
79363;SDS011;68832;53.112;17.980;2024-01-10T09:26:34;33.20;;;18.60;;
79363;SDS011;68832;53.112;17.980;2024-01-10T09:29:01;29.60;;;14.40;;
79363;SDS011;68832;53.112;17.980;2024-01-10T09:31:27;27.80;;;14.20;;
79363;SDS011;68832;53.112;17.980;2024-01-10T09:33:55;36.40;;;15.10;;
79363;SDS011;68832;53.112;17.980;2024-01-10T09:36:21;25.50;;;12.90;;
79363;SDS011;68832;53.112;17.980;2024-01-10T09:38:50;27.80;;;13.40;;
79363;SDS011;68832;53.112;17.980;2024-01-10T09:41:17;28.00;;;13.30;;
79363;SDS011;68832;53.112;17.980;2024-01-10T09:43:44;30.10;;;14.70;;
79363;SDS011;68832;53.112;17.980;2024-01-10T09:46:11;28.80;;;13.40;;
79363;SDS011;68832;53.112;17.980;2024-01-10T09:48:42;32.50;;;14.20;;
79363;SDS011;68832;53.112;17.980;2024-01-10T09:51:09;35.30;;;16.20;;
79363;SDS011;68832;53.112;17.980;2024-01-10T09:53:36;56.20;;;26.80;;
79363;SDS011;68832;53.112;17.980;2024-01-10T09:56:11;30.80;;;14.80;;
79363;SDS011;68832;53.112;17.980;2024-01-10T09:58:37;32.60;;;15.10;;
79363;SDS011;68832;53.112;17.980;2024-01-10T10:01:06;27.50;;;14.00;;
79363;SDS011;68832;53.112;17.980;2024-01-10T10:03:34;28.40;;;16.20;;
79363;SDS011;68832;53.112;17.980;2024-01-10T10:06:07;30.50;;;16.40;;
79363;SDS011;68832;53.112;17.980;2024-01-10T10:08:34;25.90;;;13.20;;
79363;SDS011;68832;53.112;17.980;2024-01-10T10:11:01;28.60;;;17.10;;
79363;SDS011;68832;53.112;17.980;2024-01-10T10:13:29;28.10;;;15.10;;
79363;SDS011;68832;53.112;17.980;2024-01-10T10:16:00;34.20;;;19.50;;
79363;SDS011;68832;53.112;17.980;2024-01-10T10:18:30;28.50;;;14.40;;
79363;SDS011;68832;53.112;17.980;2024-01-10T10:23:36;50.30;;;27.10;;
79363;SDS011;68832;53.112;17.980;2024-01-10T10:26:11;44.50;;;21.10;;
79363;SDS011;68832;53.112;17.980;2024-01-10T10:28:40;26.70;;;12.30;;
79363;SDS011;68832;53.112;17.980;2024-01-10T10:31:08;26.50;;;14.30;;
79363;SDS011;68832;53.112;17.980;2024-01-10T10:33:38;26.20;;;13.00;;
79363;SDS011;68832;53.112;17.980;2024-01-10T10:36:05;30.00;;;13.40;;
79363;SDS011;68832;53.112;17.980;2024-01-10T10:38:32;24.00;;;14.50;;
79363;SDS011;68832;53.112;17.980;2024-01-10T10:41:00;22.90;;;12.40;;
79363;SDS011;68832;53.112;17.980;2024-01-10T10:43:29;26.50;;;12.30;;
79363;SDS011;68832;53.112;17.980;2024-01-10T10:46:02;24.40;;;13.80;;
79363;SDS011;68832;53.112;17.980;2024-01-10T10:48:32;29.20;;;12.90;;
79363;SDS011;68832;53.112;17.980;2024-01-10T10:51:03;33.70;;;13.30;;
79363;SDS011;68832;53.112;17.980;2024-01-10T10:53:33;26.70;;;12.10;;
79363;SDS011;68832;53.112;17.980;2024-01-10T10:56:07;29.50;;;13.40;;
79363;SDS011;68832;53.112;17.980;2024-01-10T10:58:36;29.90;;;16.20;;
79363;SDS011;68832;53.112;17.980;2024-01-10T11:01:06;44.90;;;22.70;;
79363;SDS011;68832;53.112;17.980;2024-01-10T11:03:34;28.40;;;14.00;;
79363;SDS011;68832;53.112;17.980;2024-01-10T11:06:03;29.60;;;13.00;;
79363;SDS011;68832;53.112;17.980;2024-01-10T11:08:35;27.30;;;13.30;;
79363;SDS011;68832;53.112;17.980;2024-01-10T11:11:04;24.80;;;12.20;;
79363;SDS011;68832;53.112;17.980;2024-01-10T11:13:50;28.00;;;13.80;;
79363;SDS011;68832;53.112;17.980;2024-01-10T11:24:23;27.60;;;12.60;;
79363;SDS011;68832;53.112;17.980;2024-01-10T11:26:50;27.30;;;12.10;;
79363;SDS011;68832;53.112;17.980;2024-01-10T11:29:17;22.10;;;11.20;;
79363;SDS011;68832;53.112;17.980;2024-01-10T11:31:43;37.70;;;17.30;;
79363;SDS011;68832;53.112;17.980;2024-01-10T11:34:22;26.20;;;13.60;;
79363;SDS011;68832;53.112;17.980;2024-01-10T11:37:10;24.90;;;13.60;;
79363;SDS011;68832;53.112;17.980;2024-01-10T11:39:41;26.00;;;15.30;;
79363;SDS011;68832;53.112;17.980;2024-01-10T11:42:10;28.80;;;14.10;;
79363;SDS011;68832;53.112;17.980;2024-01-10T11:44:49;26.80;;;12.40;;
79363;SDS011;68832;53.112;17.980;2024-01-10T11:47:19;24.10;;;10.80;;
79363;SDS011;68832;53.112;17.980;2024-01-10T11:49:56;24.70;;;10.30;;
79363;SDS011;68832;53.112;17.980;2024-01-10T11:52:26;23.30;;;10.30;;
79363;SDS011;68832;53.112;17.980;2024-01-10T11:55:03;23.60;;;11.10;;
79363;SDS011;68832;53.112;17.980;2024-01-10T11:57:35;24.90;;;11.60;;
79363;SDS011;68832;53.112;17.980;2024-01-10T12:00:02;24.50;;;13.50;;
79363;SDS011;68832;53.112;17.980;2024-01-10T12:02:32;26.50;;;11.20;;
79363;SDS011;68832;53.112;17.980;2024-01-10T12:05:00;23.50;;;12.50;;
79363;SDS011;68832;53.112;17.980;2024-01-10T12:07:27;26.30;;;11.70;;
79363;SDS011;68832;53.112;17.980;2024-01-10T12:09:54;27.30;;;11.70;;
79363;SDS011;68832;53.112;17.980;2024-01-10T12:12:21;19.20;;;9.80;;
79363;SDS011;68832;53.112;17.980;2024-01-10T12:14:50;26.20;;;13.50;;
79363;SDS011;68832;53.112;17.980;2024-01-10T12:17:17;26.20;;;12.60;;
79363;SDS011;68832;53.112;17.980;2024-01-10T12:19:45;29.80;;;17.00;;
79363;SDS011;68832;53.112;17.980;2024-01-10T12:22:15;27.70;;;14.30;;
79363;SDS011;68832;53.112;17.980;2024-01-10T12:24:43;25.00;;;11.20;;
79363;SDS011;68832;53.112;17.980;2024-01-10T12:27:12;28.30;;;14.80;;
79363;SDS011;68832;53.112;17.980;2024-01-10T12:29:38;25.10;;;13.60;;
79363;SDS011;68832;53.112;17.980;2024-01-10T12:32:07;28.30;;;12.90;;
79363;SDS011;68832;53.112;17.980;2024-01-10T12:34:38;25.20;;;12.60;;
79363;SDS011;68832;53.112;17.980;2024-01-10T12:37:06;29.30;;;12.30;;
79363;SDS011;68832;53.112;17.980;2024-01-10T12:39:33;30.60;;;13.80;;
79363;SDS011;68832;53.112;17.980;2024-01-10T12:42:00;29.70;;;15.50;;
79363;SDS011;68832;53.112;17.980;2024-01-10T12:44:27;33.40;;;14.50;;
79363;SDS011;68832;53.112;17.980;2024-01-10T12:46:56;37.60;;;17.50;;
79363;SDS011;68832;53.112;17.980;2024-01-10T12:49:26;43.80;;;19.60;;
79363;SDS011;68832;53.112;17.980;2024-01-10T12:51:52;53.10;;;25.20;;
79363;SDS011;68832;53.112;17.980;2024-01-10T12:54:19;37.60;;;18.70;;
79363;SDS011;68832;53.112;17.980;2024-01-10T12:56:46;45.10;;;17.50;;
79363;SDS011;68832;53.112;17.980;2024-01-10T12:59:12;50.10;;;24.80;;
79363;SDS011;68832;53.112;17.980;2024-01-10T13:01:40;42.60;;;20.60;;
79363;SDS011;68832;53.112;17.980;2024-01-10T13:04:08;39.70;;;19.90;;
79363;SDS011;68832;53.112;17.980;2024-01-10T13:06:35;38.70;;;18.80;;
79363;SDS011;68832;53.112;17.980;2024-01-10T13:09:02;42.50;;;19.50;;
79363;SDS011;68832;53.112;17.980;2024-01-10T13:11:28;37.40;;;19.00;;
79363;SDS011;68832;53.112;17.980;2024-01-10T13:13:56;29.90;;;15.00;;
79363;SDS011;68832;53.112;17.980;2024-01-10T13:16:22;26.20;;;13.60;;
79363;SDS011;68832;53.112;17.980;2024-01-10T13:18:50;20.60;;;11.70;;
79363;SDS011;68832;53.112;17.980;2024-01-10T13:21:17;25.20;;;11.70;;
79363;SDS011;68832;53.112;17.980;2024-01-10T13:23:44;28.50;;;13.40;;
79363;SDS011;68832;53.112;17.980;2024-01-10T13:26:12;33.50;;;15.40;;
79363;SDS011;68832;53.112;17.980;2024-01-10T13:28:39;28.20;;;14.00;;
79363;SDS011;68832;53.112;17.980;2024-01-10T13:31:07;30.10;;;14.40;;
79363;SDS011;68832;53.112;17.980;2024-01-10T13:33:33;26.40;;;13.50;;
79363;SDS011;68832;53.112;17.980;2024-01-10T13:36:00;31.50;;;14.50;;
79363;SDS011;68832;53.112;17.980;2024-01-10T13:38:27;32.60;;;14.50;;
79363;SDS011;68832;53.112;17.980;2024-01-10T13:40:53;31.40;;;13.80;;
79363;SDS011;68832;53.112;17.980;2024-01-10T13:43:20;28.80;;;13.80;;
79363;SDS011;68832;53.112;17.980;2024-01-10T13:45:47;28.20;;;14.90;;
79363;SDS011;68832;53.112;17.980;2024-01-10T13:48:14;35.60;;;17.50;;
79363;SDS011;68832;53.112;17.980;2024-01-10T13:50:40;55.30;;;25.00;;
79363;SDS011;68832;53.112;17.980;2024-01-10T13:53:07;53.60;;;28.00;;
79363;SDS011;68832;53.112;17.980;2024-01-10T13:55:34;50.60;;;26.10;;
79363;SDS011;68832;53.112;17.980;2024-01-10T13:58:02;41.60;;;18.90;;
79363;SDS011;68832;53.112;17.980;2024-01-10T14:00:29;35.20;;;20.00;;
79363;SDS011;68832;53.112;17.980;2024-01-10T14:02:56;37.80;;;19.90;;
79363;SDS011;68832;53.112;17.980;2024-01-10T14:05:26;38.70;;;17.50;;
79363;SDS011;68832;53.112;17.980;2024-01-10T14:07:53;37.30;;;17.90;;
79363;SDS011;68832;53.112;17.980;2024-01-10T14:10:20;34.30;;;18.30;;
79363;SDS011;68832;53.112;17.980;2024-01-10T14:12:47;34.50;;;14.40;;
79363;SDS011;68832;53.112;17.980;2024-01-10T14:15:14;29.40;;;14.80;;
79363;SDS011;68832;53.112;17.980;2024-01-10T14:17:41;23.90;;;14.00;;
79363;SDS011;68832;53.112;17.980;2024-01-10T14:20:08;27.00;;;14.40;;
79363;SDS011;68832;53.112;17.980;2024-01-10T14:22:35;30.70;;;16.70;;
79363;SDS011;68832;53.112;17.980;2024-01-10T14:25:03;32.20;;;15.70;;
79363;SDS011;68832;53.112;17.980;2024-01-10T14:27:30;26.30;;;13.90;;
79363;SDS011;68832;53.112;17.980;2024-01-10T14:29:56;28.60;;;13.10;;
79363;SDS011;68832;53.112;17.980;2024-01-10T14:32:23;27.20;;;13.40;;
79363;SDS011;68832;53.112;17.980;2024-01-10T14:34:50;29.90;;;14.90;;
79363;SDS011;68832;53.112;17.980;2024-01-10T14:37:17;29.10;;;14.10;;